sensor_id;sensor_type;location;lat;lon;timestamp;P1;durP1;ratioP1;P2;durP2;ratioP2
14994;SDS011;7593;49.006;8.372;2022-12-17T00:00:09;20.07;;;14.23;;
14994;SDS011;7593;49.006;8.372;2022-12-17T00:02:56;20.40;;;14.17;;
14994;SDS011;7593;49.006;8.372;2022-12-17T00:05:41;20.57;;;14.03;;
14994;SDS011;7593;49.006;8.372;2022-12-17T00:08:26;20.10;;;12.70;;
14994;SDS011;7593;49.006;8.372;2022-12-17T00:11:11;17.20;;;13.20;;
14994;SDS011;7593;49.006;8.372;2022-12-17T00:13:55;17.73;;;12.97;;
14994;SDS011;7593;49.006;8.372;2022-12-17T00:16:40;17.33;;;12.40;;
14994;SDS011;7593;49.006;8.372;2022-12-17T00:19:24;19.33;;;13.03;;
14994;SDS011;7593;49.006;8.372;2022-12-17T00:22:08;16.97;;;12.70;;
14994;SDS011;7593;49.006;8.372;2022-12-17T00:24:52;17.87;;;12.33;;
14994;SDS011;7593;49.006;8.372;2022-12-17T00:27:37;19.47;;;12.60;;
14994;SDS011;7593;49.006;8.372;2022-12-17T00:30:21;18.60;;;12.97;;
14994;SDS011;7593;49.006;8.372;2022-12-17T00:33:05;18.60;;;13.87;;
14994;SDS011;7593;49.006;8.372;2022-12-17T00:35:50;20.50;;;13.50;;
14994;SDS011;7593;49.006;8.372;2022-12-17T00:38:35;19.20;;;14.50;;
14994;SDS011;7593;49.006;8.372;2022-12-17T00:41:19;22.00;;;15.20;;
14994;SDS011;7593;49.006;8.372;2022-12-17T00:44:05;19.17;;;13.77;;
14994;SDS011;7593;49.006;8.372;2022-12-17T00:46:50;18.27;;;12.27;;
14994;SDS011;7593;49.006;8.372;2022-12-17T00:49:34;19.90;;;13.53;;
14994;SDS011;7593;49.006;8.372;2022-12-17T00:52:19;16.43;;;12.13;;
14994;SDS011;7593;49.006;8.372;2022-12-17T00:55:03;17.93;;;12.17;;
14994;SDS011;7593;49.006;8.372;2022-12-17T00:57:50;19.23;;;12.37;;
14994;SDS011;7593;49.006;8.372;2022-12-17T01:00:37;18.67;;;11.83;;
14994;SDS011;7593;49.006;8.372;2022-12-17T01:03:21;17.73;;;12.57;;
14994;SDS011;7593;49.006;8.372;2022-12-17T01:06:06;20.10;;;11.90;;
14994;SDS011;7593;49.006;8.372;2022-12-17T01:08:50;19.43;;;13.13;;
14994;SDS011;7593;49.006;8.372;2022-12-17T01:11:34;18.53;;;12.20;;
14994;SDS011;7593;49.006;8.372;2022-12-17T01:14:20;17.20;;;12.00;;
14994;SDS011;7593;49.006;8.372;2022-12-17T01:17:05;18.67;;;11.90;;
14994;SDS011;7593;49.006;8.372;2022-12-17T01:19:49;16.80;;;12.37;;
14994;SDS011;7593;49.006;8.372;2022-12-17T01:22:33;17.30;;;11.77;;
14994;SDS011;7593;49.006;8.372;2022-12-17T01:25:17;17.83;;;12.10;;
14994;SDS011;7593;49.006;8.372;2022-12-17T01:28:02;19.73;;;12.33;;
14994;SDS011;7593;49.006;8.372;2022-12-17T01:30:46;18.07;;;12.87;;
14994;SDS011;7593;49.006;8.372;2022-12-17T01:33:32;17.50;;;12.70;;
14994;SDS011;7593;49.006;8.372;2022-12-17T01:36:16;21.67;;;13.33;;
14994;SDS011;7593;49.006;8.372;2022-12-17T01:39:01;19.20;;;12.63;;
14994;SDS011;7593;49.006;8.372;2022-12-17T01:42:00;19.07;;;13.10;;
14994;SDS011;7593;49.006;8.372;2022-12-17T01:44:46;24.57;;;14.90;;
14994;SDS011;7593;49.006;8.372;2022-12-17T01:47:36;36.27;;;18.23;;
14994;SDS011;7593;49.006;8.372;2022-12-17T01:50:24;29.57;;;17.50;;
14994;SDS011;7593;49.006;8.372;2022-12-17T01:53:11;23.13;;;15.33;;
14994;SDS011;7593;49.006;8.372;2022-12-17T01:55:57;25.03;;;15.63;;
14994;SDS011;7593;49.006;8.372;2022-12-17T01:58:41;26.27;;;15.47;;
14994;SDS011;7593;49.006;8.372;2022-12-17T02:01:22;23.10;;;15.33;;
14994;SDS011;7593;49.006;8.372;2022-12-17T02:04:06;22.07;;;14.33;;
14994;SDS011;7593;49.006;8.372;2022-12-17T02:06:55;22.57;;;14.33;;
14994;SDS011;7593;49.006;8.372;2022-12-17T02:09:49;18.83;;;13.40;;
14994;SDS011;7593;49.006;8.372;2022-12-17T02:12:39;23.83;;;15.53;;
14994;SDS011;7593;49.006;8.372;2022-12-17T02:15:30;23.23;;;15.63;;
14994;SDS011;7593;49.006;8.372;2022-12-17T02:18:20;24.03;;;17.07;;
14994;SDS011;7593;49.006;8.372;2022-12-17T02:21:07;25.20;;;16.93;;
14994;SDS011;7593;49.006;8.372;2022-12-17T02:23:57;24.17;;;15.93;;
14994;SDS011;7593;49.006;8.372;2022-12-17T02:26:53;23.40;;;14.97;;
14994;SDS011;7593;49.006;8.372;2022-12-17T02:29:39;23.07;;;14.77;;
14994;SDS011;7593;49.006;8.372;2022-12-17T02:32:27;27.30;;;17.20;;
14994;SDS011;7593;49.006;8.372;2022-12-17T02:35:14;26.77;;;17.80;;
14994;SDS011;7593;49.006;8.372;2022-12-17T02:38:00;25.47;;;17.13;;
14994;SDS011;7593;49.006;8.372;2022-12-17T02:40:48;32.00;;;17.90;;
14994;SDS011;7593;49.006;8.372;2022-12-17T02:43:35;32.83;;;21.90;;
14994;SDS011;7593;49.006;8.372;2022-12-17T02:46:19;32.93;;;23.03;;
14994;SDS011;7593;49.006;8.372;2022-12-17T02:49:04;23.37;;;16.40;;
14994;SDS011;7593;49.006;8.372;2022-12-17T02:51:48;20.47;;;14.20;;
14994;SDS011;7593;49.006;8.372;2022-12-17T02:54:33;20.20;;;14.03;;
14994;SDS011;7593;49.006;8.372;2022-12-17T02:57:17;20.90;;;13.80;;
14994;SDS011;7593;49.006;8.372;2022-12-17T03:00:04;19.97;;;13.17;;
14994;SDS011;7593;49.006;8.372;2022-12-17T03:02:49;22.30;;;13.47;;
14994;SDS011;7593;49.006;8.372;2022-12-17T03:05:33;20.37;;;12.97;;
14994;SDS011;7593;49.006;8.372;2022-12-17T03:08:17;17.27;;;11.83;;
14994;SDS011;7593;49.006;8.372;2022-12-17T03:11:01;18.13;;;12.10;;
14994;SDS011;7593;49.006;8.372;2022-12-17T03:13:46;17.93;;;12.83;;
14994;SDS011;7593;49.006;8.372;2022-12-17T03:16:46;18.33;;;13.33;;
14994;SDS011;7593;49.006;8.372;2022-12-17T03:19:29;22.43;;;13.17;;
14994;SDS011;7593;49.006;8.372;2022-12-17T03:22:13;19.20;;;13.13;;
14994;SDS011;7593;49.006;8.372;2022-12-17T03:25:09;20.60;;;12.73;;
14994;SDS011;7593;49.006;8.372;2022-12-17T03:27:53;19.67;;;13.13;;
14994;SDS011;7593;49.006;8.372;2022-12-17T03:30:38;18.83;;;12.83;;
14994;SDS011;7593;49.006;8.372;2022-12-17T03:33:23;21.67;;;14.27;;
14994;SDS011;7593;49.006;8.372;2022-12-17T03:36:08;28.60;;;14.20;;
14994;SDS011;7593;49.006;8.372;2022-12-17T03:38:52;22.23;;;13.67;;
14994;SDS011;7593;49.006;8.372;2022-12-17T03:41:36;23.37;;;14.33;;
14994;SDS011;7593;49.006;8.372;2022-12-17T03:44:20;20.20;;;13.63;;
14994;SDS011;7593;49.006;8.372;2022-12-17T03:47:04;21.43;;;14.13;;
14994;SDS011;7593;49.006;8.372;2022-12-17T03:49:50;23.73;;;15.20;;
14994;SDS011;7593;49.006;8.372;2022-12-17T03:52:34;21.13;;;14.47;;
14994;SDS011;7593;49.006;8.372;2022-12-17T03:55:18;22.87;;;15.00;;
14994;SDS011;7593;49.006;8.372;2022-12-17T03:58:02;23.23;;;15.03;;
14994;SDS011;7593;49.006;8.372;2022-12-17T04:01:01;22.53;;;14.27;;
14994;SDS011;7593;49.006;8.372;2022-12-17T04:03:45;20.40;;;14.90;;
14994;SDS011;7593;49.006;8.372;2022-12-17T04:06:31;22.93;;;15.37;;
14994;SDS011;7593;49.006;8.372;2022-12-17T04:09:15;20.00;;;14.23;;
14994;SDS011;7593;49.006;8.372;2022-12-17T04:11:59;19.70;;;13.40;;
14994;SDS011;7593;49.006;8.372;2022-12-17T04:14:58;21.83;;;15.00;;
14994;SDS011;7593;49.006;8.372;2022-12-17T04:17:42;21.47;;;14.13;;
14994;SDS011;7593;49.006;8.372;2022-12-17T04:20:27;20.80;;;14.50;;
14994;SDS011;7593;49.006;8.372;2022-12-17T04:23:13;20.93;;;14.83;;
14994;SDS011;7593;49.006;8.372;2022-12-17T04:25:57;21.93;;;14.37;;
14994;SDS011;7593;49.006;8.372;2022-12-17T04:28:41;21.10;;;15.30;;
14994;SDS011;7593;49.006;8.372;2022-12-17T04:31:25;19.73;;;13.97;;
14994;SDS011;7593;49.006;8.372;2022-12-17T04:34:09;24.10;;;15.27;;
14994;SDS011;7593;49.006;8.372;2022-12-17T04:36:53;23.73;;;16.00;;
14994;SDS011;7593;49.006;8.372;2022-12-17T04:39:39;21.63;;;15.03;;
14994;SDS011;7593;49.006;8.372;2022-12-17T04:42:23;20.33;;;14.13;;
14994;SDS011;7593;49.006;8.372;2022-12-17T04:45:07;20.53;;;14.13;;
14994;SDS011;7593;49.006;8.372;2022-12-17T04:47:59;22.43;;;14.50;;
14994;SDS011;7593;49.006;8.372;2022-12-17T04:50:44;22.00;;;14.80;;
14994;SDS011;7593;49.006;8.372;2022-12-17T04:53:28;24.17;;;14.60;;
14994;SDS011;7593;49.006;8.372;2022-12-17T04:56:13;22.60;;;14.80;;
14994;SDS011;7593;49.006;8.372;2022-12-17T04:58:58;25.10;;;15.30;;
14994;SDS011;7593;49.006;8.372;2022-12-17T05:01:42;23.30;;;15.33;;
14994;SDS011;7593;49.006;8.372;2022-12-17T05:04:27;26.27;;;16.37;;
14994;SDS011;7593;49.006;8.372;2022-12-17T05:07:11;23.53;;;15.30;;
14994;SDS011;7593;49.006;8.372;2022-12-17T05:09:55;25.37;;;15.17;;
14994;SDS011;7593;49.006;8.372;2022-12-17T05:12:40;27.33;;;16.83;;
14994;SDS011;7593;49.006;8.372;2022-12-17T05:15:25;22.97;;;15.13;;
14994;SDS011;7593;49.006;8.372;2022-12-17T05:18:09;23.87;;;15.30;;
14994;SDS011;7593;49.006;8.372;2022-12-17T05:20:53;25.67;;;16.23;;
14994;SDS011;7593;49.006;8.372;2022-12-17T05:23:38;26.73;;;16.50;;
14994;SDS011;7593;49.006;8.372;2022-12-17T05:26:22;27.77;;;17.10;;
14994;SDS011;7593;49.006;8.372;2022-12-17T05:29:12;25.70;;;16.43;;
14994;SDS011;7593;49.006;8.372;2022-12-17T05:31:57;29.03;;;18.03;;
14994;SDS011;7593;49.006;8.372;2022-12-17T05:34:41;26.23;;;17.80;;
14994;SDS011;7593;49.006;8.372;2022-12-17T05:37:25;27.53;;;17.50;;
14994;SDS011;7593;49.006;8.372;2022-12-17T05:40:10;29.80;;;18.03;;
14994;SDS011;7593;49.006;8.372;2022-12-17T05:42:54;30.77;;;18.63;;
14994;SDS011;7593;49.006;8.372;2022-12-17T05:45:41;29.50;;;18.70;;
14994;SDS011;7593;49.006;8.372;2022-12-17T05:48:26;36.47;;;19.13;;
14994;SDS011;7593;49.006;8.372;2022-12-17T05:51:11;30.70;;;17.97;;
14994;SDS011;7593;49.006;8.372;2022-12-17T05:53:55;31.80;;;18.03;;
14994;SDS011;7593;49.006;8.372;2022-12-17T05:56:39;31.33;;;17.73;;
14994;SDS011;7593;49.006;8.372;2022-12-17T05:59:24;30.93;;;18.77;;
14994;SDS011;7593;49.006;8.372;2022-12-17T06:02:09;35.57;;;19.90;;
14994;SDS011;7593;49.006;8.372;2022-12-17T06:04:50;33.50;;;18.87;;
14994;SDS011;7593;49.006;8.372;2022-12-17T06:07:34;31.63;;;18.10;;
14994;SDS011;7593;49.006;8.372;2022-12-17T06:10:19;34.87;;;19.13;;
14994;SDS011;7593;49.006;8.372;2022-12-17T06:13:03;32.40;;;17.90;;
14994;SDS011;7593;49.006;8.372;2022-12-17T06:15:47;32.53;;;18.07;;
14994;SDS011;7593;49.006;8.372;2022-12-17T06:18:33;29.07;;;17.93;;
14994;SDS011;7593;49.006;8.372;2022-12-17T06:21:18;29.70;;;18.00;;
14994;SDS011;7593;49.006;8.372;2022-12-17T06:24:02;31.73;;;18.80;;
14994;SDS011;7593;49.006;8.372;2022-12-17T06:26:47;27.40;;;18.13;;
14994;SDS011;7593;49.006;8.372;2022-12-17T06:29:31;31.10;;;18.60;;
14994;SDS011;7593;49.006;8.372;2022-12-17T06:32:15;34.90;;;20.67;;
14994;SDS011;7593;49.006;8.372;2022-12-17T06:35:01;29.57;;;17.90;;
14994;SDS011;7593;49.006;8.372;2022-12-17T06:37:45;27.10;;;17.87;;
14994;SDS011;7593;49.006;8.372;2022-12-17T06:40:43;28.53;;;18.53;;
14994;SDS011;7593;49.006;8.372;2022-12-17T06:43:28;29.13;;;17.53;;
14994;SDS011;7593;49.006;8.372;2022-12-17T06:46:12;26.77;;;17.27;;
14994;SDS011;7593;49.006;8.372;2022-12-17T06:48:57;28.80;;;18.10;;
14994;SDS011;7593;49.006;8.372;2022-12-17T06:51:42;29.13;;;17.43;;
14994;SDS011;7593;49.006;8.372;2022-12-17T06:54:26;26.60;;;16.73;;
14994;SDS011;7593;49.006;8.372;2022-12-17T06:57:11;25.27;;;15.87;;
14994;SDS011;7593;49.006;8.372;2022-12-17T06:59:55;31.27;;;18.33;;
14994;SDS011;7593;49.006;8.372;2022-12-17T07:02:40;25.00;;;16.80;;
14994;SDS011;7593;49.006;8.372;2022-12-17T07:05:24;28.70;;;16.83;;
14994;SDS011;7593;49.006;8.372;2022-12-17T07:08:10;31.03;;;17.57;;
14994;SDS011;7593;49.006;8.372;2022-12-17T07:10:57;32.13;;;18.37;;
14994;SDS011;7593;49.006;8.372;2022-12-17T07:13:42;33.93;;;17.17;;
14994;SDS011;7593;49.006;8.372;2022-12-17T07:16:26;28.93;;;16.37;;
14994;SDS011;7593;49.006;8.372;2022-12-17T07:19:10;29.60;;;16.93;;
14994;SDS011;7593;49.006;8.372;2022-12-17T07:21:54;28.13;;;17.87;;
14994;SDS011;7593;49.006;8.372;2022-12-17T07:24:40;26.23;;;16.30;;
14994;SDS011;7593;49.006;8.372;2022-12-17T07:27:24;30.80;;;17.70;;
14994;SDS011;7593;49.006;8.372;2022-12-17T07:30:09;29.23;;;17.47;;
14994;SDS011;7593;49.006;8.372;2022-12-17T07:32:57;30.80;;;17.33;;
14994;SDS011;7593;49.006;8.372;2022-12-17T07:35:51;28.93;;;17.83;;
14994;SDS011;7593;49.006;8.372;2022-12-17T07:38:35;27.93;;;15.63;;
14994;SDS011;7593;49.006;8.372;2022-12-17T07:41:21;25.23;;;15.93;;
14994;SDS011;7593;49.006;8.372;2022-12-17T07:44:06;28.70;;;16.93;;
14994;SDS011;7593;49.006;8.372;2022-12-17T07:46:52;27.80;;;17.00;;
14994;SDS011;7593;49.006;8.372;2022-12-17T07:49:37;27.77;;;16.43;;
14994;SDS011;7593;49.006;8.372;2022-12-17T07:52:21;28.07;;;16.20;;
14994;SDS011;7593;49.006;8.372;2022-12-17T07:55:05;28.53;;;15.70;;
14994;SDS011;7593;49.006;8.372;2022-12-17T07:57:48;26.30;;;15.60;;
14994;SDS011;7593;49.006;8.372;2022-12-17T08:00:40;25.43;;;16.40;;
14994;SDS011;7593;49.006;8.372;2022-12-17T08:03:24;25.47;;;15.10;;
14994;SDS011;7593;49.006;8.372;2022-12-17T08:06:08;35.27;;;15.47;;
14994;SDS011;7593;49.006;8.372;2022-12-17T08:09:04;26.27;;;15.40;;
14994;SDS011;7593;49.006;8.372;2022-12-17T08:11:48;28.10;;;16.47;;
14994;SDS011;7593;49.006;8.372;2022-12-17T08:14:34;26.53;;;14.90;;
14994;SDS011;7593;49.006;8.372;2022-12-17T08:17:18;31.17;;;17.03;;
14994;SDS011;7593;49.006;8.372;2022-12-17T08:20:03;27.10;;;16.17;;
14994;SDS011;7593;49.006;8.372;2022-12-17T08:22:48;30.87;;;17.87;;
14994;SDS011;7593;49.006;8.372;2022-12-17T08:25:32;28.43;;;16.17;;
14994;SDS011;7593;49.006;8.372;2022-12-17T08:28:17;27.60;;;15.93;;
14994;SDS011;7593;49.006;8.372;2022-12-17T08:31:02;30.07;;;17.13;;
14994;SDS011;7593;49.006;8.372;2022-12-17T08:33:47;30.07;;;17.90;;
14994;SDS011;7593;49.006;8.372;2022-12-17T08:36:31;25.80;;;15.93;;
14994;SDS011;7593;49.006;8.372;2022-12-17T08:39:15;28.37;;;17.17;;
14994;SDS011;7593;49.006;8.372;2022-12-17T08:41:59;28.03;;;16.17;;
14994;SDS011;7593;49.006;8.372;2022-12-17T08:44:43;25.93;;;17.00;;
14994;SDS011;7593;49.006;8.372;2022-12-17T08:47:28;27.97;;;16.50;;
14994;SDS011;7593;49.006;8.372;2022-12-17T08:50:13;28.33;;;16.77;;
14994;SDS011;7593;49.006;8.372;2022-12-17T08:52:57;28.10;;;16.90;;
14994;SDS011;7593;49.006;8.372;2022-12-17T08:55:42;28.87;;;16.67;;
14994;SDS011;7593;49.006;8.372;2022-12-17T08:58:26;28.73;;;17.83;;
14994;SDS011;7593;49.006;8.372;2022-12-17T09:01:10;31.70;;;17.70;;
14994;SDS011;7593;49.006;8.372;2022-12-17T09:03:56;31.97;;;18.07;;
14994;SDS011;7593;49.006;8.372;2022-12-17T09:06:40;40.80;;;22.03;;
14994;SDS011;7593;49.006;8.372;2022-12-17T09:09:24;30.47;;;17.80;;
14994;SDS011;7593;49.006;8.372;2022-12-17T09:12:08;28.30;;;17.63;;
14994;SDS011;7593;49.006;8.372;2022-12-17T09:14:52;53.63;;;27.60;;
14994;SDS011;7593;49.006;8.372;2022-12-17T09:17:36;27.47;;;17.70;;
14994;SDS011;7593;49.006;8.372;2022-12-17T09:20:22;28.97;;;18.13;;
14994;SDS011;7593;49.006;8.372;2022-12-17T09:23:06;35.47;;;20.97;;
14994;SDS011;7593;49.006;8.372;2022-12-17T09:25:56;43.20;;;24.13;;
14994;SDS011;7593;49.006;8.372;2022-12-17T09:28:40;27.87;;;17.53;;
14994;SDS011;7593;49.006;8.372;2022-12-17T09:31:24;31.00;;;18.63;;
14994;SDS011;7593;49.006;8.372;2022-12-17T09:34:09;26.03;;;16.70;;
14994;SDS011;7593;49.006;8.372;2022-12-17T09:36:55;31.07;;;18.03;;
14994;SDS011;7593;49.006;8.372;2022-12-17T09:39:39;25.63;;;16.03;;
14994;SDS011;7593;49.006;8.372;2022-12-17T09:42:24;25.27;;;16.43;;
14994;SDS011;7593;49.006;8.372;2022-12-17T09:45:15;26.90;;;16.20;;
14994;SDS011;7593;49.006;8.372;2022-12-17T09:48:04;25.53;;;16.03;;
14994;SDS011;7593;49.006;8.372;2022-12-17T09:50:55;27.93;;;18.90;;
14994;SDS011;7593;49.006;8.372;2022-12-17T09:53:43;29.57;;;19.20;;
14994;SDS011;7593;49.006;8.372;2022-12-17T09:56:30;32.80;;;22.47;;
14994;SDS011;7593;49.006;8.372;2022-12-17T09:59:17;21.40;;;15.10;;
14994;SDS011;7593;49.006;8.372;2022-12-17T10:02:08;26.00;;;15.27;;
14994;SDS011;7593;49.006;8.372;2022-12-17T10:04:56;22.57;;;15.27;;
14994;SDS011;7593;49.006;8.372;2022-12-17T10:07:41;21.77;;;14.47;;
14994;SDS011;7593;49.006;8.372;2022-12-17T10:10:31;21.30;;;14.97;;
14994;SDS011;7593;49.006;8.372;2022-12-17T10:13:16;24.07;;;15.47;;
14994;SDS011;7593;49.006;8.372;2022-12-17T10:16:07;28.03;;;16.43;;
14994;SDS011;7593;49.006;8.372;2022-12-17T10:19:24;25.00;;;17.10;;
14994;SDS011;7593;49.006;8.372;2022-12-17T10:22:15;24.27;;;15.77;;
14994;SDS011;7593;49.006;8.372;2022-12-17T10:25:01;29.30;;;17.03;;
14994;SDS011;7593;49.006;8.372;2022-12-17T10:27:48;30.53;;;20.03;;
14994;SDS011;7593;49.006;8.372;2022-12-17T10:30:33;24.73;;;16.77;;
14994;SDS011;7593;49.006;8.372;2022-12-17T10:33:19;24.10;;;16.17;;
14994;SDS011;7593;49.006;8.372;2022-12-17T10:36:04;23.43;;;15.30;;
14994;SDS011;7593;49.006;8.372;2022-12-17T10:39:02;36.43;;;18.03;;
14994;SDS011;7593;49.006;8.372;2022-12-17T10:41:46;26.47;;;16.63;;
14994;SDS011;7593;49.006;8.372;2022-12-17T10:44:32;44.80;;;18.47;;
14994;SDS011;7593;49.006;8.372;2022-12-17T10:47:19;31.50;;;20.70;;
14994;SDS011;7593;49.006;8.372;2022-12-17T10:50:05;29.53;;;18.10;;
14994;SDS011;7593;49.006;8.372;2022-12-17T10:52:52;32.10;;;17.47;;
14994;SDS011;7593;49.006;8.372;2022-12-17T10:55:44;25.13;;;16.50;;
14994;SDS011;7593;49.006;8.372;2022-12-17T10:58:31;25.80;;;16.83;;
14994;SDS011;7593;49.006;8.372;2022-12-17T11:01:19;36.70;;;19.50;;
14994;SDS011;7593;49.006;8.372;2022-12-17T11:04:17;38.93;;;19.37;;
14994;SDS011;7593;49.006;8.372;2022-12-17T11:07:05;32.93;;;19.47;;
14994;SDS011;7593;49.006;8.372;2022-12-17T11:09:53;35.33;;;18.40;;
14994;SDS011;7593;49.006;8.372;2022-12-17T11:12:40;28.07;;;18.23;;
14994;SDS011;7593;49.006;8.372;2022-12-17T11:15:29;30.93;;;19.10;;
14994;SDS011;7593;49.006;8.372;2022-12-17T11:18:21;29.07;;;18.40;;
14994;SDS011;7593;49.006;8.372;2022-12-17T11:21:09;29.83;;;18.70;;
14994;SDS011;7593;49.006;8.372;2022-12-17T11:23:58;31.70;;;19.63;;
14994;SDS011;7593;49.006;8.372;2022-12-17T11:26:44;26.33;;;17.60;;
14994;SDS011;7593;49.006;8.372;2022-12-17T11:29:32;36.67;;;18.80;;
14994;SDS011;7593;49.006;8.372;2022-12-17T11:32:22;31.43;;;19.43;;
14994;SDS011;7593;49.006;8.372;2022-12-17T11:35:20;29.73;;;18.77;;
14994;SDS011;7593;49.006;8.372;2022-12-17T11:38:11;36.40;;;22.40;;
14994;SDS011;7593;49.006;8.372;2022-12-17T11:41:14;32.97;;;18.83;;
14994;SDS011;7593;49.006;8.372;2022-12-17T11:44:12;27.87;;;17.77;;
14994;SDS011;7593;49.006;8.372;2022-12-17T11:47:09;36.57;;;17.43;;
14994;SDS011;7593;49.006;8.372;2022-12-17T11:50:02;28.23;;;15.73;;
14994;SDS011;7593;49.006;8.372;2022-12-17T11:52:58;25.27;;;16.43;;
14994;SDS011;7593;49.006;8.372;2022-12-17T11:55:50;33.90;;;18.77;;
14994;SDS011;7593;49.006;8.372;2022-12-17T11:58:45;61.70;;;20.43;;
14994;SDS011;7593;49.006;8.372;2022-12-17T12:01:34;26.27;;;16.27;;
14994;SDS011;7593;49.006;8.372;2022-12-17T12:04:27;27.33;;;17.77;;
14994;SDS011;7593;49.006;8.372;2022-12-17T12:07:22;32.23;;;19.23;;
14994;SDS011;7593;49.006;8.372;2022-12-17T12:10:16;29.43;;;18.30;;
14994;SDS011;7593;49.006;8.372;2022-12-17T12:13:08;35.60;;;18.60;;
14994;SDS011;7593;49.006;8.372;2022-12-17T12:16:04;32.23;;;18.23;;
14994;SDS011;7593;49.006;8.372;2022-12-17T12:18:54;31.70;;;18.97;;
14994;SDS011;7593;49.006;8.372;2022-12-17T12:21:50;38.77;;;21.03;;
14994;SDS011;7593;49.006;8.372;2022-12-17T12:24:45;28.77;;;18.60;;
14994;SDS011;7593;49.006;8.372;2022-12-17T12:27:42;31.30;;;19.90;;
14994;SDS011;7593;49.006;8.372;2022-12-17T12:30:35;29.10;;;18.13;;
14994;SDS011;7593;49.006;8.372;2022-12-17T12:33:29;24.00;;;17.33;;
14994;SDS011;7593;49.006;8.372;2022-12-17T12:36:20;25.97;;;17.57;;
14994;SDS011;7593;49.006;8.372;2022-12-17T12:39:08;25.97;;;17.40;;
14994;SDS011;7593;49.006;8.372;2022-12-17T12:41:56;31.60;;;19.83;;
14994;SDS011;7593;49.006;8.372;2022-12-17T12:44:47;25.50;;;17.30;;
14994;SDS011;7593;49.006;8.372;2022-12-17T12:47:42;30.43;;;19.23;;
14994;SDS011;7593;49.006;8.372;2022-12-17T12:50:49;32.10;;;18.17;;
14994;SDS011;7593;49.006;8.372;2022-12-17T12:53:55;27.87;;;18.67;;
14994;SDS011;7593;49.006;8.372;2022-12-17T12:56:39;32.33;;;18.97;;
14994;SDS011;7593;49.006;8.372;2022-12-17T12:59:25;34.73;;;18.77;;
14994;SDS011;7593;49.006;8.372;2022-12-17T13:02:23;30.43;;;18.40;;
14994;SDS011;7593;49.006;8.372;2022-12-17T13:05:22;28.67;;;18.63;;
14994;SDS011;7593;49.006;8.372;2022-12-17T13:08:01;25.30;;;18.13;;
14994;SDS011;7593;49.006;8.372;2022-12-17T13:10:30;27.83;;;18.50;;
14994;SDS011;7593;49.006;8.372;2022-12-17T13:12:58;30.13;;;18.10;;
14994;SDS011;7593;49.006;8.372;2022-12-17T13:15:36;25.47;;;17.17;;
14994;SDS011;7593;49.006;8.372;2022-12-17T13:18:16;26.40;;;17.90;;
14994;SDS011;7593;49.006;8.372;2022-12-17T13:20:55;25.97;;;17.90;;
14994;SDS011;7593;49.006;8.372;2022-12-17T13:23:25;26.83;;;17.57;;
14994;SDS011;7593;49.006;8.372;2022-12-17T13:26:12;25.60;;;17.67;;
14994;SDS011;7593;49.006;8.372;2022-12-17T13:28:43;26.73;;;18.10;;
14994;SDS011;7593;49.006;8.372;2022-12-17T13:31:24;27.90;;;18.00;;
14994;SDS011;7593;49.006;8.372;2022-12-17T13:33:56;27.43;;;17.87;;
14994;SDS011;7593;49.006;8.372;2022-12-17T13:36:30;31.20;;;18.53;;
14994;SDS011;7593;49.006;8.372;2022-12-17T13:39:07;29.77;;;18.23;;
14994;SDS011;7593;49.006;8.372;2022-12-17T13:41:45;28.57;;;18.97;;
14994;SDS011;7593;49.006;8.372;2022-12-17T13:44:17;26.70;;;18.27;;
14994;SDS011;7593;49.006;8.372;2022-12-17T13:46:48;26.73;;;18.67;;
14994;SDS011;7593;49.006;8.372;2022-12-17T13:49:19;26.53;;;16.93;;
14994;SDS011;7593;49.006;8.372;2022-12-17T13:51:47;24.77;;;17.57;;
14994;SDS011;7593;49.006;8.372;2022-12-17T13:54:24;26.27;;;17.60;;
14994;SDS011;7593;49.006;8.372;2022-12-17T13:56:51;26.43;;;18.27;;
14994;SDS011;7593;49.006;8.372;2022-12-17T13:59:19;27.17;;;18.90;;
14994;SDS011;7593;49.006;8.372;2022-12-17T14:01:48;29.30;;;18.40;;
14994;SDS011;7593;49.006;8.372;2022-12-17T14:04:21;28.13;;;18.47;;
14994;SDS011;7593;49.006;8.372;2022-12-17T14:06:50;27.30;;;18.77;;
14994;SDS011;7593;49.006;8.372;2022-12-17T14:09:19;26.67;;;18.47;;
14994;SDS011;7593;49.006;8.372;2022-12-17T14:11:47;26.43;;;18.13;;
14994;SDS011;7593;49.006;8.372;2022-12-17T14:14:33;26.87;;;18.40;;
14994;SDS011;7593;49.006;8.372;2022-12-17T14:17:02;25.93;;;17.53;;
14994;SDS011;7593;49.006;8.372;2022-12-17T14:19:30;26.63;;;18.67;;
14994;SDS011;7593;49.006;8.372;2022-12-17T14:21:58;27.17;;;18.10;;
14994;SDS011;7593;49.006;8.372;2022-12-17T14:24:26;25.60;;;18.80;;
14994;SDS011;7593;49.006;8.372;2022-12-17T14:26:55;28.30;;;18.47;;
14994;SDS011;7593;49.006;8.372;2022-12-17T14:29:24;26.27;;;18.27;;
14994;SDS011;7593;49.006;8.372;2022-12-17T14:31:52;29.93;;;18.23;;
14994;SDS011;7593;49.006;8.372;2022-12-17T14:34:21;27.80;;;18.13;;
14994;SDS011;7593;49.006;8.372;2022-12-17T14:36:53;28.27;;;17.43;;
14994;SDS011;7593;49.006;8.372;2022-12-17T14:39:22;28.40;;;19.00;;
14994;SDS011;7593;49.006;8.372;2022-12-17T14:41:51;30.43;;;18.97;;
14994;SDS011;7593;49.006;8.372;2022-12-17T14:44:37;24.70;;;17.97;;
14994;SDS011;7593;49.006;8.372;2022-12-17T14:47:17;29.23;;;19.20;;
14994;SDS011;7593;49.006;8.372;2022-12-17T14:49:52;25.50;;;18.20;;
14994;SDS011;7593;49.006;8.372;2022-12-17T14:52:26;41.37;;;20.03;;
14994;SDS011;7593;49.006;8.372;2022-12-17T14:54:58;26.53;;;18.47;;
14994;SDS011;7593;49.006;8.372;2022-12-17T14:57:25;25.93;;;18.87;;
14994;SDS011;7593;49.006;8.372;2022-12-17T14:59:52;29.00;;;20.23;;
14994;SDS011;7593;49.006;8.372;2022-12-17T15:02:19;29.40;;;20.00;;
14994;SDS011;7593;49.006;8.372;2022-12-17T15:04:50;28.03;;;19.43;;
14994;SDS011;7593;49.006;8.372;2022-12-17T15:07:20;28.40;;;19.60;;
14994;SDS011;7593;49.006;8.372;2022-12-17T15:09:51;27.03;;;18.80;;
14994;SDS011;7593;49.006;8.372;2022-12-17T15:12:18;35.97;;;21.10;;
14994;SDS011;7593;49.006;8.372;2022-12-17T15:14:46;29.23;;;19.57;;
14994;SDS011;7593;49.006;8.372;2022-12-17T15:17:13;31.30;;;20.83;;
14994;SDS011;7593;49.006;8.372;2022-12-17T15:19:41;33.93;;;20.60;;
14994;SDS011;7593;49.006;8.372;2022-12-17T15:22:09;29.83;;;20.33;;
14994;SDS011;7593;49.006;8.372;2022-12-17T15:24:40;29.97;;;21.13;;
14994;SDS011;7593;49.006;8.372;2022-12-17T15:27:09;30.27;;;21.40;;
14994;SDS011;7593;49.006;8.372;2022-12-17T15:29:38;35.60;;;22.30;;
14994;SDS011;7593;49.006;8.372;2022-12-17T15:32:05;31.70;;;21.50;;
14994;SDS011;7593;49.006;8.372;2022-12-17T15:34:32;36.40;;;23.30;;
14994;SDS011;7593;49.006;8.372;2022-12-17T15:36:59;35.10;;;23.43;;
14994;SDS011;7593;49.006;8.372;2022-12-17T15:39:26;32.97;;;22.40;;
14994;SDS011;7593;49.006;8.372;2022-12-17T15:41:53;31.43;;;22.57;;
14994;SDS011;7593;49.006;8.372;2022-12-17T15:44:39;33.80;;;23.60;;
14994;SDS011;7593;49.006;8.372;2022-12-17T15:47:05;30.83;;;21.60;;
14994;SDS011;7593;49.006;8.372;2022-12-17T15:49:32;33.30;;;22.47;;
14994;SDS011;7593;49.006;8.372;2022-12-17T15:51:59;33.57;;;22.10;;
14994;SDS011;7593;49.006;8.372;2022-12-17T15:54:26;33.47;;;22.53;;
14994;SDS011;7593;49.006;8.372;2022-12-17T15:56:53;32.87;;;22.40;;
14994;SDS011;7593;49.006;8.372;2022-12-17T15:59:20;36.13;;;22.60;;
14994;SDS011;7593;49.006;8.372;2022-12-17T16:01:48;34.93;;;22.80;;
14994;SDS011;7593;49.006;8.372;2022-12-17T16:04:15;35.13;;;23.77;;
14994;SDS011;7593;49.006;8.372;2022-12-17T16:06:42;36.17;;;22.37;;
14994;SDS011;7593;49.006;8.372;2022-12-17T16:09:09;34.50;;;23.20;;